createdAt,value
2018-07-27T00:00:31.180Z,1001.1
2018-07-27T00:01:32.575Z,1001.1
2018-07-27T00:02:33.970Z,1001.0
2018-07-27T00:03:35.369Z,1001.1
2018-07-27T00:04:36.764Z,1001.1
2018-07-27T00:05:38.166Z,1001.0
2018-07-27T00:06:39.565Z,1001.0
2018-07-27T00:07:40.958Z,1001.0
2018-07-27T00:08:42.355Z,1001.0
2018-07-27T00:09:43.756Z,1001.0
2018-07-27T00:10:45.146Z,1001.0
2018-07-27T00:11:46.547Z,1001.0
2018-07-27T00:12:47.941Z,1001.0
2018-07-27T00:13:49.378Z,1001.0
2018-07-27T00:14:50.748Z,1001.0
2018-07-27T00:15:52.144Z,1001.0
2018-07-27T00:16:53.545Z,1001.0
2018-07-27T00:17:54.939Z,1001.0
2018-07-27T00:18:56.333Z,1001.0
2018-07-27T00:19:57.764Z,1001.0
2018-07-27T00:20:59.141Z,1001.0
2018-07-27T00:22:00.536Z,1001.0
2018-07-27T00:23:01.930Z,1001.0
2018-07-27T00:24:03.332Z,1001.0
2018-07-27T00:25:04.828Z,1001.0
2018-07-27T00:26:06.226Z,1001.0
2018-07-27T00:27:07.625Z,1001.0
2018-07-27T00:28:09.032Z,1001.0
2018-07-27T00:29:10.417Z,1001.0
2018-07-27T00:30:11.816Z,1001.0
2018-07-27T00:31:13.218Z,1001.0
2018-07-27T00:32:14.612Z,1001.0
2018-07-27T00:33:16.012Z,1001.0
2018-07-27T00:34:17.407Z,1001.0
2018-07-27T00:35:18.822Z,1001.0
2018-07-27T00:36:20.224Z,1001.0
2018-07-27T00:37:21.644Z,1001.0
2018-07-27T00:38:23.045Z,1001.0
2018-07-27T00:39:24.439Z,1001.0
2018-07-27T00:40:25.837Z,1001.0
2018-07-27T00:41:27.238Z,1001.0
2018-07-27T00:42:28.636Z,1001.0
2018-07-27T00:43:30.033Z,1001.0
2018-07-27T00:44:31.430Z,1001.0
2018-07-27T00:45:32.832Z,1001.0
2018-07-27T00:46:34.236Z,1000.9
2018-07-27T00:47:35.627Z,1000.9
2018-07-27T00:48:37.059Z,1000.9
2018-07-27T00:49:38.424Z,1001.0
2018-07-27T00:50:39.817Z,1001.0
2018-07-27T00:51:41.207Z,1001.0
2018-07-27T00:52:42.609Z,1001.0
2018-07-27T00:53:44.002Z,1001.0
2018-07-27T00:54:45.399Z,1000.9
2018-07-27T00:55:46.815Z,1001.0
2018-07-27T00:56:48.236Z,1000.9
2018-07-27T00:57:49.642Z,1001.0
2018-07-27T00:58:51.031Z,1001.0
2018-07-27T00:59:52.424Z,1001.0
2018-07-27T01:00:53.839Z,1001.0
2018-07-27T01:01:55.239Z,1001.0
2018-07-27T01:02:56.632Z,1000.9
2018-07-27T01:03:58.029Z,1001.0
2018-07-27T01:04:59.578Z,1000.9
2018-07-27T01:06:00.974Z,1000.9
2018-07-27T01:07:02.370Z,1000.9
2018-07-27T01:08:03.766Z,1000.9
2018-07-27T01:09:05.164Z,1000.9
2018-07-27T01:10:06.559Z,1000.9
2018-07-27T01:11:07.956Z,1000.9
2018-07-27T01:12:09.350Z,1000.9
2018-07-27T01:13:10.739Z,1000.9
2018-07-27T01:14:12.138Z,1000.9
2018-07-27T01:15:13.532Z,1000.9
2018-07-27T01:16:14.932Z,1000.9
2018-07-27T01:17:16.332Z,1000.9
2018-07-27T01:18:17.775Z,1001.0
2018-07-27T01:19:19.171Z,1000.9
2018-07-27T01:20:20.561Z,1001.0
2018-07-27T01:21:21.993Z,1000.9
2018-07-27T01:22:23.390Z,1000.9
2018-07-27T01:23:24.794Z,1000.9
2018-07-27T01:24:26.188Z,1000.9
2018-07-27T01:25:27.586Z,1000.9
2018-07-27T01:26:28.978Z,1000.9
2018-07-27T01:27:30.370Z,1000.9
2018-07-27T01:28:31.769Z,1000.9
2018-07-27T01:29:33.170Z,1000.9
2018-07-27T01:30:34.570Z,1000.9
2018-07-27T01:31:35.968Z,1000.9
2018-07-27T01:32:37.363Z,1000.9
2018-07-27T01:33:38.751Z,1000.8
2018-07-27T01:34:40.153Z,1000.8
2018-07-27T01:35:41.551Z,1000.9
2018-07-27T01:36:42.952Z,1000.8
2018-07-27T01:37:44.351Z,1000.9
2018-07-27T01:38:45.787Z,1000.8
2018-07-27T01:39:47.178Z,1000.8
2018-07-27T01:40:48.571Z,1000.8
2018-07-27T01:41:50.012Z,1000.8
2018-07-27T01:42:51.410Z,1000.8
2018-07-27T01:43:52.805Z,1000.8
2018-07-27T01:44:54.306Z,1000.8
2018-07-27T01:45:55.723Z,1000.8
2018-07-27T01:46:57.119Z,1000.8
2018-07-27T01:47:58.511Z,1000.8
2018-07-27T01:48:59.908Z,1000.8
2018-07-27T01:50:01.306Z,1000.8
2018-07-27T01:51:02.711Z,1000.8
2018-07-27T01:52:04.097Z,1000.7
2018-07-27T01:53:05.495Z,1000.8
2018-07-27T01:54:06.904Z,1000.7
2018-07-27T01:55:08.305Z,1000.8
2018-07-27T01:56:09.700Z,1000.8
2018-07-27T01:57:11.095Z,1000.8
2018-07-27T01:58:12.496Z,1000.8
2018-07-27T01:59:13.893Z,1000.8
2018-07-27T02:00:15.352Z,1000.7
2018-07-27T02:01:16.758Z,1000.8
2018-07-27T02:02:18.154Z,1000.8
2018-07-27T02:03:19.548Z,1000.7
2018-07-27T02:04:20.949Z,1000.7
2018-07-27T02:05:22.353Z,1000.7
2018-07-27T02:06:23.752Z,1000.7
2018-07-27T02:07:25.146Z,1000.7
2018-07-27T02:08:26.557Z,1000.7
2018-07-27T02:09:27.949Z,1000.7
2018-07-27T02:10:29.344Z,1000.7
2018-07-27T02:11:30.736Z,1000.6
2018-07-27T02:12:32.132Z,1000.6
2018-07-27T02:13:33.535Z,1000.7
2018-07-27T02:14:34.931Z,1000.6
2018-07-27T02:15:36.320Z,1000.6
2018-07-27T02:16:37.715Z,1000.6
2018-07-27T02:17:39.109Z,1000.6
2018-07-27T02:18:40.509Z,1000.6
2018-07-27T02:19:41.909Z,1000.6
2018-07-27T02:20:43.311Z,1000.6
2018-07-27T02:21:44.713Z,1000.6
2018-07-27T02:22:46.107Z,1000.6
2018-07-27T02:23:47.523Z,1000.6
2018-07-27T02:24:49.004Z,1000.6
2018-07-27T02:25:50.437Z,1000.6
2018-07-27T02:26:51.837Z,1000.6
2018-07-27T02:27:53.235Z,1000.5
2018-07-27T02:28:54.640Z,1000.6
2018-07-27T02:29:56.040Z,1000.6
2018-07-27T02:30:57.432Z,1000.6
2018-07-27T02:31:58.829Z,1000.5
2018-07-27T02:33:00.219Z,1000.5
2018-07-27T02:34:01.615Z,1000.5
2018-07-27T02:35:03.016Z,1000.5
2018-07-27T02:36:04.423Z,1000.5
2018-07-27T02:37:05.833Z,1000.5
2018-07-27T02:38:07.237Z,1000.5
2018-07-27T02:39:08.621Z,1000.5
2018-07-27T02:40:10.075Z,1000.5
2018-07-27T02:41:11.422Z,1000.6
2018-07-27T02:42:12.822Z,1000.6
2018-07-27T02:43:14.219Z,1000.5
2018-07-27T02:44:15.617Z,1000.6
2018-07-27T02:45:17.017Z,1000.5
2018-07-27T02:46:18.413Z,1000.5
2018-07-27T02:47:19.830Z,1000.5
2018-07-27T02:48:21.230Z,1000.5
2018-07-27T02:49:22.630Z,1000.5
2018-07-27T02:50:24.027Z,1000.5
2018-07-27T02:51:25.463Z,1000.5
2018-07-27T02:52:26.821Z,1000.5
2018-07-27T02:53:28.213Z,1000.5
2018-07-27T02:54:29.608Z,1000.5
2018-07-27T02:55:31.001Z,1000.5
2018-07-27T02:56:32.402Z,1000.5
2018-07-27T02:57:33.798Z,1000.4
2018-07-27T02:58:35.202Z,1000.5
2018-07-27T02:59:36.598Z,1000.5
2018-07-27T03:00:38.097Z,1000.5
2018-07-27T03:01:39.492Z,1000.5
2018-07-27T03:02:40.891Z,1000.5
2018-07-27T03:03:42.323Z,1000.4
2018-07-27T03:04:43.829Z,1000.5
2018-07-27T03:05:45.229Z,1000.5
2018-07-27T03:06:46.627Z,1000.5
2018-07-27T03:07:48.024Z,1000.5
2018-07-27T03:08:49.421Z,1000.5
2018-07-27T03:09:50.887Z,1000.5
2018-07-27T03:10:52.222Z,1000.4
2018-07-27T03:11:53.628Z,1000.4
2018-07-27T03:12:55.084Z,1000.4
2018-07-27T03:13:56.483Z,1000.4
2018-07-27T03:14:57.881Z,1000.4
2018-07-27T03:15:59.278Z,1000.4
2018-07-27T03:17:00.674Z,1000.4
2018-07-27T03:18:02.072Z,1000.4
2018-07-27T03:19:03.484Z,1000.4
2018-07-27T03:20:04.890Z,1000.4
2018-07-27T03:21:06.289Z,1000.4
2018-07-27T03:22:07.684Z,1000.4
2018-07-27T03:23:09.086Z,1000.4
2018-07-27T03:24:10.481Z,1000.4
2018-07-27T03:25:11.874Z,1000.4
2018-07-27T03:26:13.274Z,1000.4
2018-07-27T03:27:14.673Z,1000.4
2018-07-27T03:28:16.113Z,1000.4
2018-07-27T03:29:17.506Z,1000.4
2018-07-27T03:30:18.951Z,1000.4
2018-07-27T03:31:20.349Z,1000.4
2018-07-27T03:32:21.755Z,1000.4
2018-07-27T03:33:23.153Z,1000.4
2018-07-27T03:34:24.551Z,1000.4
2018-07-27T03:35:25.949Z,1000.4
2018-07-27T03:36:27.345Z,1000.4
2018-07-27T03:37:28.742Z,1000.4
2018-07-27T03:38:30.137Z,1000.4
2018-07-27T03:39:31.543Z,1000.4
2018-07-27T03:40:32.936Z,1000.4
2018-07-27T03:41:34.337Z,1000.4
2018-07-27T03:42:35.731Z,1000.4
2018-07-27T03:43:37.137Z,1000.4
2018-07-27T03:44:38.653Z,1000.4
2018-07-27T03:45:40.047Z,1000.3
2018-07-27T03:46:41.450Z,1000.3
2018-07-27T03:47:42.845Z,1000.3
2018-07-27T03:48:44.246Z,1000.3
2018-07-27T03:49:45.643Z,1000.3
2018-07-27T03:50:47.038Z,1000.3
2018-07-27T03:51:48.439Z,1000.3
2018-07-27T03:52:49.839Z,1000.3
2018-07-27T03:53:51.251Z,1000.3
2018-07-27T03:54:52.653Z,1000.3
2018-07-27T03:55:54.053Z,1000.3
2018-07-27T03:56:55.448Z,1000.3
2018-07-27T03:57:56.907Z,1000.3
2018-07-27T03:58:58.353Z,1000.3
2018-07-27T03:59:59.749Z,1000.3
2018-07-27T04:01:01.200Z,1000.3
2018-07-27T04:02:02.616Z,1000.3
2018-07-27T04:03:04.070Z,1000.3
2018-07-27T04:04:05.417Z,1000.3
2018-07-27T04:05:06.810Z,1000.3
2018-07-27T04:06:08.209Z,1000.3
2018-07-27T04:07:09.609Z,1000.4
2018-07-27T04:08:11.007Z,1000.3
2018-07-27T04:09:12.408Z,1000.4
2018-07-27T04:10:14.362Z,1000.4
2018-07-27T04:11:15.763Z,1000.4
2018-07-27T04:12:17.161Z,1000.4
2018-07-27T04:13:18.555Z,1000.5
2018-07-27T04:14:20.189Z,1000.4
2018-07-27T04:15:21.595Z,1000.4
2018-07-27T04:16:23.003Z,1000.4
2018-07-27T04:17:24.447Z,1000.5
2018-07-27T04:18:25.857Z,1000.4
2018-07-27T04:19:27.267Z,1000.4
2018-07-27T04:20:28.671Z,1000.5
2018-07-27T04:21:30.084Z,1000.4
2018-07-27T04:22:31.590Z,1000.5
2018-07-27T04:23:33.084Z,1000.5
2018-07-27T04:24:34.507Z,1000.5
2018-07-27T04:25:35.928Z,1000.5
2018-07-27T04:26:37.329Z,1000.5
2018-07-27T04:27:38.724Z,1000.4
2018-07-27T04:28:40.128Z,1000.5
2018-07-27T04:29:41.615Z,1000.5
2018-07-27T04:30:43.016Z,1000.4
2018-07-27T04:31:44.445Z,1000.5
2018-07-27T04:32:45.840Z,1000.5
2018-07-27T04:33:47.237Z,1000.4
2018-07-27T04:34:48.648Z,1000.4
2018-07-27T04:35:50.103Z,1000.4
2018-07-27T04:36:51.443Z,1000.4
2018-07-27T04:37:52.846Z,1000.4
2018-07-27T04:38:54.246Z,1000.4
2018-07-27T04:39:55.643Z,1000.4
2018-07-27T04:40:57.090Z,1000.4
2018-07-27T04:41:58.482Z,1000.5
2018-07-27T04:42:59.952Z,1000.4
2018-07-27T04:44:01.287Z,1000.4
2018-07-27T04:45:02.699Z,1000.4
2018-07-27T04:46:04.102Z,1000.4
2018-07-27T04:47:05.505Z,1000.5
2018-07-27T04:48:06.924Z,1000.5
2018-07-27T04:49:08.338Z,1000.5
2018-07-27T04:50:09.765Z,1000.5
2018-07-27T04:51:11.154Z,1000.5
2018-07-27T04:52:12.544Z,1000.5
2018-07-27T04:53:13.948Z,1000.5
2018-07-27T04:54:15.342Z,1000.5
2018-07-27T04:55:16.741Z,1000.5
2018-07-27T04:56:18.182Z,1000.5
2018-07-27T04:57:19.542Z,1000.5
2018-07-27T04:58:20.974Z,1000.5
2018-07-27T04:59:22.388Z,1000.5
2018-07-27T05:00:24.074Z,1000.5
2018-07-27T05:01:25.649Z,1000.5
2018-07-27T05:02:27.552Z,1000.5
2018-07-27T05:03:28.946Z,1000.5
2018-07-27T05:04:30.347Z,1000.5
2018-07-27T05:05:31.763Z,1000.5
2018-07-27T05:06:08.208Z,1000.5
2018-07-27T05:07:09.737Z,1000.5
2018-07-27T05:08:31.331Z,1000.5
2018-07-27T05:09:32.732Z,1000.5
2018-07-27T05:10:34.142Z,1000.5
2018-07-27T05:11:35.541Z,1000.5
2018-07-27T05:12:36.940Z,1000.5
2018-07-27T05:13:38.337Z,1000.5
2018-07-27T05:14:39.840Z,1000.5
2018-07-27T05:15:41.385Z,1000.5
2018-07-27T05:16:42.789Z,1000.5
2018-07-27T05:17:44.186Z,1000.5
2018-07-27T05:18:45.719Z,1000.5
2018-07-27T05:19:47.218Z,1000.5
2018-07-27T05:20:48.683Z,1000.5
2018-07-27T05:21:50.080Z,1000.5
2018-07-27T05:22:51.508Z,1000.5
2018-07-27T05:23:52.914Z,1000.5
2018-07-27T05:24:54.310Z,1000.5
2018-07-27T05:25:55.715Z,1000.6
2018-07-27T05:26:57.133Z,1000.5
2018-07-27T05:27:58.565Z,1000.5
2018-07-27T05:28:59.966Z,1000.5
2018-07-27T05:30:01.373Z,1000.5
2018-07-27T05:31:02.760Z,1000.5
2018-07-27T05:32:04.161Z,1000.5
2018-07-27T05:33:05.557Z,1000.5
2018-07-27T05:34:06.954Z,1000.5
2018-07-27T05:35:08.395Z,1000.5
2018-07-27T05:36:09.797Z,1000.5
2018-07-27T05:37:11.207Z,1000.5
2018-07-27T05:38:12.606Z,1000.5
2018-07-27T05:39:14.001Z,1000.5
2018-07-27T05:40:15.400Z,1000.5
2018-07-27T05:41:16.818Z,1000.5
2018-07-27T05:42:18.196Z,1000.6
2018-07-27T05:43:19.597Z,1000.6
2018-07-27T05:44:21.000Z,1000.6
2018-07-27T05:45:22.393Z,1000.6
2018-07-27T05:46:23.887Z,1000.6
2018-07-27T05:47:25.283Z,1000.6
2018-07-27T05:48:26.681Z,1000.6
2018-07-27T05:49:28.094Z,1000.6
2018-07-27T05:50:29.545Z,1000.6
2018-07-27T05:51:30.950Z,1000.6
2018-07-27T05:52:32.349Z,1000.6
2018-07-27T05:53:33.751Z,1000.5
2018-07-27T05:54:35.153Z,1000.6
2018-07-27T05:55:36.555Z,1000.6
2018-07-27T05:56:37.971Z,1000.6
2018-07-27T05:57:39.365Z,1000.6
2018-07-27T05:58:40.792Z,1000.6
2018-07-27T05:59:42.282Z,1000.6
2018-07-27T06:00:43.682Z,1000.6
2018-07-27T06:01:45.076Z,1000.6
2018-07-27T06:02:46.540Z,1000.6
2018-07-27T06:03:47.869Z,1000.6
2018-07-27T06:04:49.309Z,1000.6
2018-07-27T06:05:50.676Z,1000.6
2018-07-27T06:06:52.092Z,1000.6
2018-07-27T06:07:53.488Z,1000.6
2018-07-27T06:08:54.892Z,1000.6
2018-07-27T06:09:56.290Z,1000.5
2018-07-27T06:10:57.689Z,1000.6
2018-07-27T06:11:59.084Z,1000.6
2018-07-27T06:13:00.486Z,1000.5
2018-07-27T06:14:01.898Z,1000.5
2018-07-27T06:15:03.303Z,1000.5
2018-07-27T06:16:04.695Z,1000.5
2018-07-27T06:17:06.094Z,1000.5
2018-07-27T06:18:07.586Z,1000.5
2018-07-27T06:19:08.907Z,1000.5
2018-07-27T06:20:10.390Z,1000.5
2018-07-27T06:21:11.786Z,1000.5
2018-07-27T06:22:13.193Z,1000.5
2018-07-27T06:23:14.588Z,1000.5
2018-07-27T06:24:16.072Z,1000.5
2018-07-27T06:25:17.409Z,1000.5
2018-07-27T06:26:18.947Z,1000.5
2018-07-27T06:27:20.363Z,1000.5
2018-07-27T06:28:21.759Z,1000.5
2018-07-27T06:29:23.194Z,1000.5
2018-07-27T06:30:24.562Z,1000.4
2018-07-27T06:31:25.962Z,1000.4
2018-07-27T06:32:27.371Z,1000.4
2018-07-27T06:33:28.771Z,1000.4
2018-07-27T06:34:30.167Z,1000.5
2018-07-27T06:35:31.571Z,1000.4
2018-07-27T06:36:32.965Z,1000.4
2018-07-27T06:37:34.364Z,1000.5
2018-07-27T06:38:35.764Z,1000.4
2018-07-27T06:39:37.209Z,1000.5
2018-07-27T06:40:38.605Z,1000.5
2018-07-27T06:41:40.005Z,1000.5
2018-07-27T06:42:41.404Z,1000.5
2018-07-27T06:43:42.813Z,1000.5
2018-07-27T06:44:44.217Z,1000.5
2018-07-27T06:45:45.618Z,1000.5
2018-07-27T06:46:47.024Z,1000.4
2018-07-27T06:47:48.422Z,1000.4
2018-07-27T06:48:49.825Z,1000.5
2018-07-27T06:49:51.227Z,1000.5
2018-07-27T06:50:52.624Z,1000.5
2018-07-27T06:51:54.026Z,1000.5
2018-07-27T06:52:55.422Z,1000.5
2018-07-27T06:53:56.824Z,1000.5
2018-07-27T06:54:58.225Z,1000.5
2018-07-27T06:55:59.631Z,1000.5
2018-07-27T06:57:01.041Z,1000.5
2018-07-27T06:58:02.442Z,1000.6
2018-07-27T06:59:03.840Z,1000.5
2018-07-27T07:00:05.239Z,1000.5
2018-07-27T07:01:06.645Z,1000.5
2018-07-27T07:02:08.049Z,1000.5
2018-07-27T07:03:09.449Z,1000.5
2018-07-27T07:04:10.851Z,1000.5
2018-07-27T07:05:12.265Z,1000.5
2018-07-27T07:06:13.701Z,1000.5
2018-07-27T07:07:15.100Z,1000.5
2018-07-27T07:08:16.508Z,1000.5
2018-07-27T07:09:17.908Z,1000.5
2018-07-27T07:10:19.308Z,1000.5
2018-07-27T07:11:20.708Z,1000.5
2018-07-27T07:12:22.108Z,1000.5
2018-07-27T07:13:23.509Z,1000.5
2018-07-27T07:14:24.932Z,1000.5
2018-07-27T07:15:26.307Z,1000.5
2018-07-27T07:16:27.712Z,1000.5
2018-07-27T07:17:29.117Z,1000.5
2018-07-27T07:18:30.519Z,1000.5
2018-07-27T07:19:31.917Z,1000.4
2018-07-27T07:20:33.316Z,1000.5
2018-07-27T07:21:34.717Z,1000.5
2018-07-27T07:22:36.114Z,1000.4
2018-07-27T07:23:37.518Z,1000.5
2018-07-27T07:24:38.916Z,1000.5
2018-07-27T07:25:40.422Z,1000.4
2018-07-27T07:26:41.728Z,1000.4
2018-07-27T07:27:43.126Z,1000.5
2018-07-27T07:28:44.528Z,1000.5
2018-07-27T07:29:45.935Z,1000.5
2018-07-27T07:30:47.338Z,1000.5
2018-07-27T07:31:48.740Z,1000.4
2018-07-27T07:32:50.163Z,1000.4
2018-07-27T07:33:51.564Z,1000.4
2018-07-27T07:34:52.964Z,1000.4
2018-07-27T07:35:54.363Z,1000.4
2018-07-27T07:36:55.770Z,1000.4
2018-07-27T07:37:57.186Z,1000.4
2018-07-27T07:38:58.596Z,1000.4
2018-07-27T07:39:59.999Z,1000.4
2018-07-27T07:41:01.403Z,1000.4
2018-07-27T07:42:02.807Z,1000.4
2018-07-27T07:43:04.206Z,1000.4
2018-07-27T07:44:05.614Z,1000.4
2018-07-27T07:45:07.126Z,1000.4
2018-07-27T07:46:08.542Z,1000.4
2018-07-27T07:47:09.947Z,1000.4
2018-07-27T07:48:11.350Z,1000.4
2018-07-27T07:49:12.751Z,1000.4
2018-07-27T07:50:14.149Z,1000.3
2018-07-27T07:51:15.553Z,1000.3
2018-07-27T07:52:16.962Z,1000.3
2018-07-27T07:53:18.366Z,1000.3
2018-07-27T07:54:19.766Z,1000.3
2018-07-27T07:55:21.166Z,1000.3
2018-07-27T07:56:22.589Z,1000.3
2018-07-27T07:57:24.000Z,1000.3
2018-07-27T07:58:25.408Z,1000.2
2018-07-27T07:59:26.807Z,1000.2
2018-07-27T08:00:28.215Z,1000.3
2018-07-27T08:01:29.626Z,1000.3
2018-07-27T08:02:31.025Z,1000.3
2018-07-27T08:03:32.433Z,1000.3
2018-07-27T08:04:33.849Z,1000.2
2018-07-27T08:05:35.263Z,1000.2
2018-07-27T08:06:36.640Z,1000.2
2018-07-27T08:07:38.064Z,1000.2
2018-07-27T08:08:39.500Z,1000.2
2018-07-27T08:09:40.901Z,1000.2
2018-07-27T08:10:42.300Z,1000.2
2018-07-27T08:11:43.699Z,1000.2
2018-07-27T08:12:45.100Z,1000.2
2018-07-27T08:13:46.500Z,1000.1
2018-07-27T08:14:47.905Z,1000.1
2018-07-27T08:15:49.305Z,1000.1
2018-07-27T08:16:50.708Z,1000.1
2018-07-27T08:17:52.115Z,1000.1
2018-07-27T08:18:53.512Z,1000.2
2018-07-27T08:19:54.915Z,1000.1
2018-07-27T08:20:56.320Z,1000.1
2018-07-27T08:21:57.728Z,1000.1
2018-07-27T08:22:59.128Z,1000.1
2018-07-27T08:24:00.521Z,1000.1
2018-07-27T08:25:01.975Z,1000.1
2018-07-27T08:26:03.406Z,1000.1
2018-07-27T08:27:04.783Z,1000.2
2018-07-27T08:28:06.184Z,1000.1
2018-07-27T08:29:07.594Z,1000.1
2018-07-27T08:30:08.996Z,1000.1
2018-07-27T08:31:10.395Z,1000.1
2018-07-27T08:32:11.804Z,1000.1
2018-07-27T08:33:13.210Z,1000.1
2018-07-27T08:34:14.617Z,1000.1
2018-07-27T08:35:16.019Z,1000.1
2018-07-27T08:36:17.429Z,1000.1
2018-07-27T08:37:18.831Z,1000.1
2018-07-27T08:38:20.233Z,1000.1
2018-07-27T08:39:21.635Z,1000.1
2018-07-27T08:40:23.044Z,1000.1
2018-07-27T08:41:24.447Z,1000.1
2018-07-27T08:42:25.855Z,1000.0
2018-07-27T08:43:27.264Z,1000.1
2018-07-27T08:44:28.668Z,1000.0
2018-07-27T08:45:30.076Z,1000.0
2018-07-27T08:46:31.483Z,1000.1
2018-07-27T08:47:32.883Z,1000.0
2018-07-27T08:48:34.291Z,1000.0
2018-07-27T08:49:35.692Z,1000.0
2018-07-27T08:50:37.098Z,1000.0
2018-07-27T08:51:38.498Z,1000.0
2018-07-27T08:52:39.902Z,1000.0
2018-07-27T08:53:41.303Z,1000.0
2018-07-27T08:54:42.715Z,1000.0
2018-07-27T08:55:44.117Z,999.9
2018-07-27T08:56:45.527Z,1000.0
2018-07-27T08:57:46.932Z,999.9
2018-07-27T08:58:48.342Z,1000.0
2018-07-27T08:59:49.749Z,1000.0
2018-07-27T09:00:51.155Z,1000.0
2018-07-27T09:01:52.561Z,1000.0
2018-07-27T09:02:54.061Z,999.9
2018-07-27T09:03:55.450Z,999.9
2018-07-27T09:04:56.813Z,999.9
2018-07-27T09:05:58.220Z,999.9
2018-07-27T09:06:59.624Z,999.9
2018-07-27T09:08:01.037Z,999.9
2018-07-27T09:09:02.459Z,999.9
2018-07-27T09:10:03.860Z,999.9
2018-07-27T09:11:05.270Z,999.9
2018-07-27T09:12:06.685Z,999.9
2018-07-27T09:13:08.089Z,999.9
2018-07-27T09:14:09.497Z,999.9
2018-07-27T09:15:10.899Z,999.9
2018-07-27T09:16:12.295Z,999.9
2018-07-27T09:17:13.733Z,999.9
2018-07-27T09:18:15.110Z,999.9
2018-07-27T09:19:16.544Z,999.9
2018-07-27T09:20:17.950Z,999.8
2018-07-27T09:21:19.355Z,999.9
2018-07-27T09:22:20.759Z,999.9
2018-07-27T09:23:22.164Z,999.9
2018-07-27T09:24:23.735Z,999.8
2018-07-27T09:25:25.069Z,999.9
2018-07-27T09:26:26.402Z,999.8
2018-07-27T09:27:27.801Z,999.8
2018-07-27T09:28:29.204Z,999.8
2018-07-27T09:29:30.610Z,999.8
2018-07-27T09:30:32.013Z,999.8
2018-07-27T09:31:33.426Z,999.8
2018-07-27T09:32:34.845Z,999.7
2018-07-27T09:33:36.250Z,999.8
2018-07-27T09:34:37.656Z,999.8
2018-07-27T09:35:39.067Z,999.8
2018-07-27T09:36:40.461Z,999.8
2018-07-27T09:37:41.867Z,999.8
2018-07-27T09:38:43.271Z,999.8
2018-07-27T09:39:44.675Z,999.7
2018-07-27T09:40:46.079Z,999.7
2018-07-27T09:41:47.607Z,999.7
2018-07-27T09:42:49.013Z,999.8
2018-07-27T09:43:50.415Z,999.7
2018-07-27T09:44:51.817Z,999.7
2018-07-27T09:45:53.252Z,999.7
2018-07-27T09:46:54.656Z,999.7
2018-07-27T09:47:56.059Z,999.7
2018-07-27T09:48:57.463Z,999.6
2018-07-27T09:49:58.866Z,999.6
2018-07-27T09:51:00.273Z,999.7
2018-07-27T09:52:01.674Z,999.7
2018-07-27T09:53:03.077Z,999.6
2018-07-27T09:54:04.491Z,999.6
2018-07-27T09:55:05.902Z,999.6
2018-07-27T09:56:07.304Z,999.6
2018-07-27T09:57:08.704Z,999.6
2018-07-27T09:58:10.106Z,999.6
2018-07-27T09:59:11.510Z,999.6
2018-07-27T10:00:12.919Z,999.6
2018-07-27T10:01:14.326Z,999.6
2018-07-27T10:02:15.733Z,999.6
2018-07-27T10:03:17.137Z,999.6
2018-07-27T10:04:18.535Z,999.6
2018-07-27T10:05:19.941Z,999.6
2018-07-27T10:06:21.348Z,999.5
2018-07-27T10:07:22.749Z,999.5
2018-07-27T10:08:24.159Z,999.5
2018-07-27T10:09:25.564Z,999.4
2018-07-27T10:10:26.970Z,999.4
2018-07-27T10:11:28.372Z,999.4
2018-07-27T10:12:29.774Z,999.4
2018-07-27T10:13:31.179Z,999.4
2018-07-27T10:14:32.592Z,999.4
2018-07-27T10:15:33.996Z,999.4
2018-07-27T10:16:35.402Z,999.4
2018-07-27T10:17:36.807Z,999.4
2018-07-27T10:18:38.214Z,999.4
2018-07-27T10:19:39.706Z,999.4
2018-07-27T10:20:41.108Z,999.5
2018-07-27T10:21:42.516Z,999.4
2018-07-27T10:22:43.927Z,999.4
2018-07-27T10:23:45.330Z,999.4
2018-07-27T10:24:46.733Z,999.3
2018-07-27T10:25:48.138Z,999.3
2018-07-27T10:26:49.552Z,999.4
2018-07-27T10:27:50.959Z,999.4
2018-07-27T10:28:52.367Z,999.3
2018-07-27T10:29:53.786Z,999.3
2018-07-27T10:30:55.198Z,999.3
2018-07-27T10:31:56.607Z,999.3
2018-07-27T10:32:58.017Z,999.3
2018-07-27T10:33:59.425Z,999.3
2018-07-27T10:35:00.832Z,999.3
2018-07-27T10:36:02.241Z,999.3
2018-07-27T10:37:03.648Z,999.3
2018-07-27T10:38:05.057Z,999.3
2018-07-27T10:39:06.465Z,999.3
2018-07-27T10:40:07.869Z,999.3
2018-07-27T10:41:09.275Z,999.3
2018-07-27T10:42:10.684Z,999.3
2018-07-27T10:43:12.092Z,999.3
2018-07-27T10:44:13.501Z,999.2
2018-07-27T10:45:14.908Z,999.2
2018-07-27T10:46:16.318Z,999.2
2018-07-27T10:47:17.729Z,999.2
2018-07-27T10:48:19.133Z,999.2
2018-07-27T10:49:20.547Z,999.2
2018-07-27T10:50:21.953Z,999.2
2018-07-27T10:51:23.359Z,999.2
2018-07-27T10:52:24.772Z,999.2
2018-07-27T10:53:26.185Z,999.2
2018-07-27T10:54:27.591Z,999.3
2018-07-27T10:55:29.155Z,999.2
2018-07-27T10:56:30.680Z,999.3
2018-07-27T10:57:32.054Z,999.2
2018-07-27T10:58:33.461Z,999.2
2018-07-27T10:59:34.868Z,999.2
2018-07-27T11:00:36.275Z,999.2
2018-07-27T11:01:37.679Z,999.2
2018-07-27T11:02:39.089Z,999.2
2018-07-27T11:03:40.497Z,999.2
2018-07-27T11:04:41.907Z,999.3
2018-07-27T11:05:43.317Z,999.2
2018-07-27T11:06:44.727Z,999.2
2018-07-27T11:07:46.137Z,999.1
2018-07-27T11:08:47.559Z,999.1
2018-07-27T11:09:49.012Z,999.1
2018-07-27T11:10:50.365Z,999.1
2018-07-27T11:11:51.780Z,999.0
2018-07-27T11:12:53.194Z,999.1
2018-07-27T11:13:54.610Z,999.1
2018-07-27T11:14:56.014Z,999.0
2018-07-27T11:15:57.421Z,998.9
2018-07-27T11:16:58.833Z,998.9
2018-07-27T11:18:00.244Z,998.9
2018-07-27T11:19:01.652Z,998.9
2018-07-27T11:20:03.068Z,999.0
2018-07-27T11:21:04.480Z,998.9
2018-07-27T11:22:05.892Z,999.0
2018-07-27T11:23:07.301Z,998.9
2018-07-27T11:24:08.721Z,998.9
2018-07-27T11:25:10.129Z,998.9
2018-07-27T11:26:11.542Z,998.9
2018-07-27T11:27:12.954Z,998.8
2018-07-27T11:28:14.367Z,998.8
2018-07-27T11:29:15.781Z,998.7
2018-07-27T11:30:17.197Z,998.7
2018-07-27T11:31:18.607Z,998.8
2018-07-27T11:32:20.020Z,998.8
2018-07-27T11:33:21.431Z,998.8
2018-07-27T11:34:22.918Z,998.8
2018-07-27T11:35:24.333Z,998.7
2018-07-27T11:36:25.740Z,998.7
2018-07-27T11:37:27.188Z,998.7
2018-07-27T11:38:28.568Z,998.7
2018-07-27T11:39:29.984Z,998.7
2018-07-27T11:40:31.401Z,998.7
2018-07-27T11:41:32.816Z,998.7
2018-07-27T11:42:34.281Z,998.7
2018-07-27T11:43:35.637Z,998.6
2018-07-27T11:44:37.061Z,998.7
2018-07-27T11:45:38.473Z,998.7
2018-07-27T11:46:39.884Z,998.6
2018-07-27T11:47:41.301Z,998.6
2018-07-27T11:48:42.706Z,998.6
2018-07-27T11:49:44.121Z,998.6
2018-07-27T11:50:45.531Z,998.6
2018-07-27T11:51:46.942Z,998.5
2018-07-27T11:52:48.362Z,998.5
2018-07-27T11:53:49.770Z,998.5
2018-07-27T11:54:51.185Z,998.5
2018-07-27T11:55:52.596Z,998.5
2018-07-27T11:56:54.002Z,998.5
2018-07-27T11:57:55.418Z,998.5
2018-07-27T11:58:56.829Z,998.5
2018-07-27T11:59:58.242Z,998.5
2018-07-27T12:00:59.652Z,998.5
2018-07-27T12:02:01.067Z,998.4
2018-07-27T12:03:02.495Z,998.4
2018-07-27T12:04:03.902Z,998.5
2018-07-27T12:05:05.324Z,998.4
2018-07-27T12:06:06.729Z,998.4
2018-07-27T12:07:08.192Z,998.4
2018-07-27T12:08:09.556Z,998.3
2018-07-27T12:09:10.977Z,998.3
2018-07-27T12:10:12.394Z,998.4
2018-07-27T12:11:13.813Z,998.4
2018-07-27T12:12:15.333Z,998.4
2018-07-27T12:13:16.730Z,998.4
2018-07-27T12:14:18.282Z,998.4
2018-07-27T12:15:19.761Z,998.3
2018-07-27T12:16:20.980Z,998.3
2018-07-27T12:17:22.392Z,998.3
2018-07-27T12:18:23.817Z,998.2
2018-07-27T12:19:25.230Z,998.3
2018-07-27T12:20:26.683Z,998.3
2018-07-27T12:21:28.187Z,998.3
2018-07-27T12:22:29.436Z,998.3
2018-07-27T12:23:30.851Z,998.3
2018-07-27T12:24:32.278Z,998.3
2018-07-27T12:25:33.696Z,998.2
2018-07-27T12:26:35.104Z,998.2
2018-07-27T12:27:36.515Z,998.2
2018-07-27T12:28:37.933Z,998.2
2018-07-27T12:29:39.345Z,998.3
2018-07-27T12:30:40.763Z,998.2
2018-07-27T12:31:42.170Z,998.2
2018-07-27T12:32:43.627Z,998.2
2018-07-27T12:33:44.992Z,998.2
2018-07-27T12:34:46.400Z,998.2
2018-07-27T12:35:47.836Z,998.1
2018-07-27T12:36:49.217Z,998.1
2018-07-27T12:37:50.629Z,998.1
2018-07-27T12:38:52.080Z,998.1
2018-07-27T12:39:53.466Z,998.1
2018-07-27T12:40:54.876Z,998.1
2018-07-27T12:41:56.287Z,998.1
2018-07-27T12:42:57.699Z,998.0
2018-07-27T12:43:59.106Z,998.0
2018-07-27T12:45:00.581Z,998.0
2018-07-27T12:46:01.959Z,998.0
2018-07-27T12:47:03.416Z,998.0
2018-07-27T12:48:04.825Z,998.0
2018-07-27T12:49:06.233Z,998.0
2018-07-27T12:50:07.714Z,997.9
2018-07-27T12:51:09.129Z,997.9
2018-07-27T12:52:10.534Z,997.9
2018-07-27T12:53:11.960Z,997.9